createdAt,value
2023-02-19T00:00:00.001Z,7.35
2023-02-19T00:02:28.150Z,5.82
2023-02-19T00:04:56.278Z,8.73
2023-02-19T00:07:24.177Z,9.15
2023-02-19T00:09:55.029Z,8.73
2023-02-19T00:12:23.297Z,8.82
2023-02-19T00:14:51.187Z,8.20
2023-02-19T00:17:19.061Z,10.35
2023-02-19T00:19:47.097Z,9.68
2023-02-19T00:22:14.836Z,7.68
2023-02-19T00:24:42.699Z,7.43
2023-02-19T00:27:10.871Z,10.65
2023-02-19T00:29:38.758Z,10.40
2023-02-19T00:32:06.963Z,9.82
2023-02-19T00:34:35.188Z,7.93
2023-02-19T00:37:02.995Z,9.82
2023-02-19T00:39:30.841Z,7.65
2023-02-19T00:42:01.121Z,9.98
2023-02-19T00:44:28.960Z,11.60
2023-02-19T00:46:56.708Z,8.45
2023-02-19T00:49:24.952Z,9.80
2023-02-19T00:51:53.902Z,10.63
2023-02-19T00:54:23.022Z,10.90
2023-02-19T00:56:51.674Z,8.75
2023-02-19T00:59:19.791Z,9.85
2023-02-19T01:01:47.928Z,9.73
2023-02-19T01:04:16.781Z,10.63
2023-02-19T01:06:44.721Z,8.63
2023-02-19T01:09:12.779Z,11.15
2023-02-19T01:11:42.069Z,9.75
2023-02-19T01:14:10.952Z,8.65
2023-02-19T01:16:38.854Z,8.65
2023-02-19T01:19:07.067Z,7.87
2023-02-19T01:21:34.924Z,7.68
2023-02-19T01:24:04.156Z,6.62
2023-02-19T01:26:35.540Z,8.02
2023-02-19T01:29:05.161Z,8.02
2023-02-19T01:31:33.611Z,7.95
2023-02-19T01:34:04.279Z,8.45
2023-02-19T01:36:34.442Z,10.30
2023-02-19T01:39:05.356Z,7.00
2023-02-19T01:41:37.010Z,10.52
2023-02-19T01:44:09.901Z,7.83
2023-02-19T01:46:42.829Z,10.00
2023-02-19T01:49:19.032Z,7.47
2023-02-19T01:51:52.767Z,6.45
2023-02-19T01:54:25.530Z,8.27
2023-02-19T01:56:54.164Z,9.30
2023-02-19T01:59:22.756Z,9.38
2023-02-19T02:01:50.800Z,11.18
2023-02-19T02:04:19.323Z,8.68
2023-02-19T02:06:57.780Z,7.47
2023-02-19T02:09:49.641Z,8.05
2023-02-19T02:12:17.839Z,7.80
2023-02-19T02:14:48.589Z,4.82
2023-02-19T02:17:30.603Z,9.95
2023-02-19T02:20:18.093Z,5.53
2023-02-19T02:23:17.125Z,9.45
2023-02-19T02:25:59.579Z,9.35
2023-02-19T02:28:57.998Z,7.60
2023-02-19T02:31:43.053Z,7.37
2023-02-19T02:34:23.953Z,9.13
2023-02-19T02:36:56.105Z,7.65
2023-02-19T02:39:27.658Z,8.50
2023-02-19T02:42:18.306Z,6.30
2023-02-19T02:45:07.135Z,7.60
2023-02-19T02:47:48.134Z,10.25
2023-02-19T02:50:21.575Z,8.23
2023-02-19T02:53:15.008Z,5.35
2023-02-19T02:55:46.177Z,7.97
2023-02-19T02:58:15.984Z,7.70
2023-02-19T03:01:26.743Z,9.82
2023-02-19T03:04:11.474Z,10.38
2023-02-19T03:06:41.806Z,8.98
2023-02-19T03:09:30.460Z,7.53
2023-02-19T03:12:21.660Z,8.35
2023-02-19T03:15:14.933Z,7.87
2023-02-19T03:18:17.123Z,7.15
2023-02-19T03:20:49.080Z,6.87
2023-02-19T03:23:18.660Z,7.93
2023-02-19T03:26:06.710Z,7.50
2023-02-19T03:28:59.859Z,8.05
2023-02-19T03:31:32.255Z,6.65
2023-02-19T03:34:05.623Z,7.12
2023-02-19T03:36:54.263Z,9.73
2023-02-19T03:39:25.664Z,12.88
2023-02-19T03:42:12.558Z,19.58
2023-02-19T03:45:04.195Z,19.05
2023-02-19T03:48:13.821Z,15.40
2023-02-19T03:51:26.965Z,18.70
2023-02-19T03:57:00.927Z,11.10
2023-02-19T03:59:38.658Z,9.52
2023-02-19T04:02:14.158Z,9.70
2023-02-19T04:04:56.277Z,8.50
2023-02-19T04:07:27.237Z,9.43
2023-02-19T04:09:55.697Z,8.35
2023-02-19T04:12:24.205Z,9.32
2023-02-19T04:15:22.715Z,7.03
2023-02-19T04:18:04.588Z,6.85
2023-02-19T04:20:40.150Z,10.18
2023-02-19T04:23:08.862Z,7.85
2023-02-19T04:25:39.583Z,8.85
2023-02-19T04:28:08.745Z,9.30
2023-02-19T04:30:37.059Z,7.78
2023-02-19T04:33:05.017Z,6.87
2023-02-19T04:35:32.888Z,7.07
2023-02-19T04:38:01.156Z,7.32
2023-02-19T04:40:29.058Z,8.90
2023-02-19T04:42:56.832Z,8.93
2023-02-19T04:45:25.152Z,8.80
2023-02-19T04:47:52.989Z,7.37
2023-02-19T04:50:21.932Z,8.73
2023-02-19T04:52:50.381Z,9.30
2023-02-19T04:55:18.474Z,8.23
2023-02-19T04:57:46.343Z,6.75
2023-02-19T05:00:14.827Z,6.43
2023-02-19T05:02:45.562Z,8.85
2023-02-19T05:05:13.410Z,5.75
2023-02-19T05:07:41.566Z,7.75
2023-02-19T05:10:09.465Z,7.82
2023-02-19T05:12:37.319Z,6.90
2023-02-19T05:15:05.833Z,6.15
2023-02-19T05:17:36.915Z,7.10
2023-02-19T05:20:05.619Z,8.90
2023-02-19T05:22:33.557Z,6.87
2023-02-19T05:25:01.382Z,8.48
2023-02-19T05:27:34.083Z,5.50
2023-02-19T05:30:02.031Z,8.30
2023-02-19T05:32:31.866Z,6.05
2023-02-19T05:34:59.721Z,7.93
2023-02-19T05:37:30.657Z,7.80
2023-02-19T05:39:58.888Z,10.00
2023-02-19T05:42:26.678Z,6.50
2023-02-19T05:44:54.482Z,8.88
2023-02-19T05:47:22.720Z,9.65
2023-02-19T05:49:50.566Z,8.82
2023-02-19T05:52:18.503Z,8.27
2023-02-19T05:54:46.699Z,9.45
2023-02-19T05:57:14.550Z,9.23
2023-02-19T05:59:42.328Z,7.45
2023-02-19T06:02:10.658Z,8.43
2023-02-19T06:04:39.126Z,5.65
2023-02-19T06:07:06.946Z,7.65
2023-02-19T06:09:34.821Z,5.93
2023-02-19T06:12:03.100Z,5.68
2023-02-19T06:14:30.869Z,7.12
2023-02-19T06:16:58.565Z,7.43
2023-02-19T06:19:26.599Z,8.65
2023-02-19T06:21:54.392Z,7.60
2023-02-19T06:24:22.142Z,8.13
2023-02-19T06:26:50.326Z,5.62
2023-02-19T06:29:18.095Z,5.15
2023-02-19T06:31:46.079Z,6.65
2023-02-19T06:34:14.484Z,5.80
2023-02-19T06:36:42.263Z,9.93
2023-02-19T06:39:10.822Z,7.30
2023-02-19T06:41:38.987Z,8.13
2023-02-19T06:44:06.790Z,8.68
2023-02-19T06:46:35.862Z,6.22
2023-02-19T06:49:06.953Z,6.90
2023-02-19T06:51:35.200Z,10.48
2023-02-19T06:54:03.057Z,5.65
2023-02-19T06:56:34.102Z,10.00
2023-02-19T06:59:05.266Z,7.78
2023-02-19T07:01:35.108Z,7.62
2023-02-19T07:04:03.831Z,7.57
2023-02-19T07:06:32.288Z,6.03
2023-02-19T07:09:01.358Z,9.25
2023-02-19T07:11:35.057Z,4.75
2023-02-19T07:14:05.100Z,8.57
2023-02-19T07:16:32.889Z,5.65
2023-02-19T07:19:01.229Z,5.55
2023-02-19T07:21:30.052Z,8.48
2023-02-19T07:24:00.662Z,9.38
2023-02-19T07:26:28.605Z,8.82
2023-02-19T07:28:56.847Z,8.70
2023-02-19T07:31:25.393Z,5.87
2023-02-19T07:33:53.203Z,8.40
2023-02-19T07:36:23.213Z,6.60
2023-02-19T07:38:58.303Z,7.95
2023-02-19T07:41:27.693Z,4.68
2023-02-19T07:43:57.186Z,7.28
2023-02-19T07:46:25.666Z,5.62
2023-02-19T07:48:53.728Z,4.70
2023-02-19T07:51:21.502Z,11.50
2023-02-19T07:53:50.816Z,6.45
2023-02-19T07:56:19.866Z,6.30
2023-02-19T07:58:47.581Z,7.97
2023-02-19T08:01:41.089Z,7.28
2023-02-19T08:04:09.817Z,6.90
2023-02-19T08:06:37.482Z,4.28
2023-02-19T08:09:06.220Z,6.50
2023-02-19T08:11:52.951Z,4.68
2023-02-19T08:14:24.285Z,6.97
2023-02-19T08:16:53.288Z,6.78
2023-02-19T08:19:21.460Z,6.18
2023-02-19T08:21:49.308Z,6.12
2023-02-19T08:24:17.440Z,2.35
2023-02-19T08:26:45.213Z,10.80
2023-02-19T08:29:12.986Z,6.25
2023-02-19T08:31:41.172Z,6.10
2023-02-19T08:34:08.957Z,5.28
2023-02-19T08:36:36.698Z,3.25
2023-02-19T08:39:04.750Z,3.12
2023-02-19T08:41:32.547Z,2.83
2023-02-19T08:44:00.455Z,8.18
2023-02-19T08:46:28.691Z,3.45
2023-02-19T08:48:56.449Z,5.53
2023-02-19T08:51:24.148Z,5.47
2023-02-19T08:53:52.288Z,4.75
2023-02-19T08:56:23.352Z,5.20
2023-02-19T08:58:51.286Z,5.18
2023-02-19T09:04:04.345Z,5.37
2023-02-19T09:06:32.607Z,2.78
2023-02-19T09:09:00.459Z,9.77
2023-02-19T09:11:28.252Z,6.30
2023-02-19T09:13:57.784Z,4.57
2023-02-19T09:16:25.631Z,5.87
2023-02-19T09:18:53.624Z,3.53
2023-02-19T09:21:21.847Z,5.75
2023-02-19T09:23:49.680Z,4.45
2023-02-19T09:26:17.534Z,7.70
2023-02-19T09:28:45.983Z,6.82
2023-02-19T09:31:17.372Z,9.20
2023-02-19T09:33:47.376Z,10.77
2023-02-19T09:36:16.357Z,4.82
2023-02-19T09:38:44.217Z,14.05
2023-02-19T09:41:32.858Z,22.92
2023-02-19T09:44:03.564Z,12.00
2023-02-19T09:46:51.846Z,11.77
2023-02-19T09:49:36.070Z,10.40
2023-02-19T09:52:13.806Z,11.38
2023-02-19T09:54:42.215Z,11.85
2023-02-19T09:57:16.821Z,5.60
2023-02-19T10:00:00.609Z,4.80
2023-02-19T10:02:31.181Z,3.70
2023-02-19T10:04:59.988Z,12.45
2023-02-19T10:07:39.724Z,8.27
2023-02-19T10:10:11.038Z,7.93
2023-02-19T10:12:43.249Z,7.32
2023-02-19T10:15:38.595Z,9.77
2023-02-19T10:18:10.072Z,5.20
2023-02-19T10:20:40.673Z,5.90
2023-02-19T10:23:15.216Z,9.73
2023-02-19T10:25:58.473Z,7.95
2023-02-19T10:28:35.113Z,7.12
2023-02-19T10:31:07.794Z,3.97
2023-02-19T10:33:58.746Z,6.53
2023-02-19T10:36:37.601Z,4.68
2023-02-19T10:42:01.516Z,3.15
2023-02-19T10:44:36.274Z,7.72
2023-02-19T10:47:04.990Z,8.57
2023-02-19T10:49:37.667Z,2.75
2023-02-19T10:52:18.314Z,3.62
2023-02-19T10:54:47.835Z,10.20
2023-02-19T10:57:15.956Z,6.10
2023-02-19T10:59:52.086Z,3.15
2023-02-19T11:02:22.144Z,4.40
2023-02-19T11:05:07.997Z,5.70
2023-02-19T11:07:56.254Z,4.37
2023-02-19T11:10:31.109Z,4.68
2023-02-19T11:13:04.657Z,5.20
2023-02-19T11:15:37.526Z,3.03
2023-02-19T11:18:23.870Z,7.93
2023-02-19T11:20:55.922Z,8.20
2023-02-19T11:23:36.180Z,8.77
2023-02-19T11:26:17.438Z,6.97
2023-02-19T11:28:45.684Z,7.57
2023-02-19T11:31:19.865Z,10.73
2023-02-19T11:34:01.602Z,8.10
2023-02-19T11:36:37.804Z,7.12
2023-02-19T11:39:17.789Z,5.85
2023-02-19T11:42:13.254Z,5.57
2023-02-19T11:44:59.560Z,2.80
2023-02-19T11:47:51.511Z,8.30
2023-02-19T11:50:46.846Z,8.40
2023-02-19T11:53:27.232Z,10.68
2023-02-19T11:56:24.131Z,9.80
2023-02-19T11:58:58.946Z,3.97
2023-02-19T12:01:31.353Z,5.62
2023-02-19T12:04:40.286Z,5.30
2023-02-19T12:07:26.409Z,5.55
2023-02-19T12:10:21.792Z,3.90
2023-02-19T12:13:12.806Z,8.00
2023-02-19T12:15:57.636Z,3.33
2023-02-19T12:18:37.168Z,3.85
2023-02-19T12:21:36.398Z,2.35
2023-02-19T12:24:15.791Z,7.20
2023-02-19T12:27:11.469Z,4.82
2023-02-19T12:29:52.044Z,5.70
2023-02-19T12:32:38.896Z,7.85
2023-02-19T12:35:35.075Z,7.87
2023-02-19T12:38:18.842Z,6.28
2023-02-19T12:41:12.073Z,9.70
2023-02-19T12:43:55.901Z,6.47
2023-02-19T12:46:33.934Z,3.03
2023-02-19T12:49:07.986Z,9.20
2023-02-19T12:51:44.124Z,10.68
2023-02-19T12:54:25.083Z,7.45
2023-02-19T12:57:17.755Z,5.32
2023-02-19T13:00:09.399Z,3.08
2023-02-19T13:02:42.836Z,9.35
2023-02-19T13:05:38.932Z,10.80
2023-02-19T13:08:26.687Z,13.23
2023-02-19T13:11:05.794Z,9.10
2023-02-19T13:13:51.934Z,15.77
2023-02-19T13:16:23.686Z,8.18
2023-02-19T13:18:58.637Z,9.52
2023-02-19T13:21:49.278Z,6.47
2023-02-19T13:24:22.100Z,13.02
2023-02-19T13:27:08.884Z,15.52
2023-02-19T13:30:14.054Z,13.32
2023-02-19T13:32:54.308Z,10.50
2023-02-19T13:35:29.276Z,9.40
2023-02-19T13:38:02.447Z,16.83
2023-02-19T13:40:52.951Z,15.02
2023-02-19T13:43:26.126Z,14.23
2023-02-19T13:46:00.697Z,13.35
2023-02-19T13:48:40.268Z,15.60
2023-02-19T13:51:33.934Z,18.40
2023-02-19T13:54:14.286Z,18.05
2023-02-19T13:56:42.311Z,27.08
2023-02-19T13:59:36.596Z,21.62
2023-02-19T14:02:04.338Z,13.18
2023-02-19T14:04:32.453Z,13.15
2023-02-19T14:07:06.347Z,14.70
2023-02-19T14:09:46.244Z,13.73
2023-02-19T14:12:15.653Z,15.85
2023-02-19T14:14:55.768Z,15.00
2023-02-19T14:17:40.565Z,9.88
2023-02-19T14:20:18.152Z,15.90
2023-02-19T14:22:55.625Z,16.62
2023-02-19T14:25:39.616Z,17.60
2023-02-19T14:28:07.407Z,20.33
2023-02-19T14:30:52.971Z,14.18
2023-02-19T14:33:29.443Z,19.30
2023-02-19T14:36:06.011Z,6.87
2023-02-19T14:38:43.030Z,14.68
2023-02-19T14:41:13.616Z,11.00
2023-02-19T14:43:42.064Z,11.93
2023-02-19T14:46:25.454Z,13.27
2023-02-19T14:48:54.026Z,15.60
2023-02-19T14:51:21.834Z,16.90
2023-02-19T14:53:50.518Z,13.23
2023-02-19T14:56:26.745Z,13.75
2023-02-19T14:59:13.915Z,13.77
2023-02-19T15:01:42.311Z,14.95
2023-02-19T15:04:25.789Z,13.73
2023-02-19T15:06:57.447Z,10.38
2023-02-19T15:09:32.497Z,14.87
2023-02-19T15:12:03.102Z,14.68
2023-02-19T15:14:32.633Z,14.57
2023-02-19T15:17:05.365Z,12.70
2023-02-19T15:19:39.784Z,10.85
2023-02-19T15:22:08.175Z,10.10
2023-02-19T15:24:36.671Z,12.77
2023-02-19T15:27:04.572Z,13.50
2023-02-19T15:29:32.802Z,12.15
2023-02-19T15:32:02.532Z,12.25
2023-02-19T15:34:32.758Z,12.75
2023-02-19T15:37:05.002Z,12.05
2023-02-19T15:39:46.836Z,12.00
2023-02-19T15:42:22.868Z,9.98
2023-02-19T15:45:00.404Z,12.63
2023-02-19T15:47:42.604Z,10.70
2023-02-19T15:50:23.465Z,11.55
2023-02-19T15:53:14.987Z,13.38
2023-02-19T15:56:07.214Z,11.73
2023-02-19T15:58:44.399Z,12.25
2023-02-19T16:01:25.581Z,10.32
2023-02-19T16:03:54.534Z,14.07
2023-02-19T16:06:24.644Z,13.30
2023-02-19T16:08:52.487Z,13.18
2023-02-19T16:11:23.512Z,15.05
2023-02-19T16:13:52.169Z,13.27
2023-02-19T16:16:25.112Z,11.73
2023-02-19T16:18:54.113Z,9.95
2023-02-19T16:21:25.266Z,13.40
2023-02-19T16:24:24.816Z,12.07
2023-02-19T16:26:53.320Z,12.35
2023-02-19T16:29:31.050Z,15.70
2023-02-19T16:32:07.820Z,17.02
2023-02-19T16:34:48.751Z,16.40
2023-02-19T16:37:35.927Z,14.52
2023-02-19T16:40:09.562Z,14.02
2023-02-19T16:42:54.297Z,13.35
2023-02-19T16:45:22.226Z,12.35
2023-02-19T16:47:51.586Z,10.93
2023-02-19T16:50:25.594Z,11.85
2023-02-19T16:52:58.178Z,14.60
2023-02-19T16:55:26.993Z,14.52
2023-02-19T16:57:55.550Z,14.68
2023-02-19T17:00:26.315Z,14.70
2023-02-19T17:03:09.360Z,15.88
2023-02-19T17:05:40.031Z,17.75
2023-02-19T17:08:39.073Z,15.40
2023-02-19T17:11:15.966Z,14.35
2023-02-19T17:13:46.211Z,15.90
2023-02-19T17:16:20.197Z,15.38
2023-02-19T17:18:48.225Z,14.32
2023-02-19T17:21:28.441Z,14.98
2023-02-19T17:23:57.492Z,15.57
2023-02-19T17:26:30.844Z,18.10
2023-02-19T17:31:32.792Z,15.50
2023-02-19T17:34:00.801Z,10.43
2023-02-19T17:36:33.094Z,19.75
2023-02-19T17:39:02.982Z,20.42
2023-02-19T17:41:30.910Z,16.80
2023-02-19T17:43:58.832Z,17.92
2023-02-19T17:46:28.074Z,19.45
2023-02-19T17:48:56.589Z,17.37
2023-02-19T17:51:24.710Z,17.27
2023-02-19T17:53:53.786Z,19.40
2023-02-19T17:56:25.951Z,17.90
2023-02-19T17:58:58.575Z,17.95
2023-02-19T18:01:26.503Z,17.52
2023-02-19T18:03:55.064Z,20.05
2023-02-19T18:06:22.967Z,14.82
2023-02-19T18:08:52.759Z,15.25
2023-02-19T18:11:24.472Z,16.52
2023-02-19T18:13:52.997Z,17.37
2023-02-19T18:16:23.053Z,15.02
2023-02-19T18:18:51.117Z,15.45
2023-02-19T18:21:19.216Z,14.75
2023-02-19T18:23:47.537Z,15.38
2023-02-19T18:26:20.841Z,15.10
2023-02-19T18:28:49.314Z,14.00
2023-02-19T18:31:20.424Z,14.13
2023-02-19T18:33:48.358Z,13.57
2023-02-19T18:36:16.629Z,17.77
2023-02-19T18:38:44.943Z,15.32
2023-02-19T18:41:14.736Z,18.40
2023-02-19T18:43:43.329Z,17.73
2023-02-19T18:46:11.795Z,13.98
2023-02-19T18:48:39.600Z,17.10
2023-02-19T18:51:11.558Z,12.45
2023-02-19T18:53:39.742Z,12.50
2023-02-19T18:56:09.458Z,15.20
2023-02-19T18:58:37.370Z,15.38
2023-02-19T19:01:05.449Z,16.17
2023-02-19T19:03:33.825Z,13.88
2023-02-19T19:06:01.788Z,13.62
2023-02-19T19:08:30.734Z,14.57
2023-02-19T19:10:59.151Z,14.68
2023-02-19T19:13:30.047Z,15.85
2023-02-19T19:15:57.996Z,14.80
2023-02-19T19:18:26.306Z,14.57
2023-02-19T19:20:56.888Z,14.13
2023-02-19T19:23:24.680Z,16.90
2023-02-19T19:25:54.890Z,14.93
2023-02-19T19:28:22.932Z,17.73
2023-02-19T19:30:50.809Z,15.77
2023-02-19T19:33:19.126Z,16.85
2023-02-19T19:35:47.013Z,19.85
2023-02-19T19:38:14.861Z,17.05
2023-02-19T19:40:43.016Z,17.87
2023-02-19T19:43:10.972Z,14.70
2023-02-19T19:45:39.213Z,18.95
2023-02-19T19:48:07.512Z,16.40
2023-02-19T19:50:35.288Z,17.83
2023-02-19T19:53:05.963Z,15.95
2023-02-19T19:55:34.466Z,19.58
2023-02-19T19:58:02.307Z,17.10
2023-02-19T20:00:30.278Z,13.90
2023-02-19T20:02:58.636Z,17.15
2023-02-19T20:05:26.457Z,21.62
2023-02-19T20:07:57.399Z,16.65
2023-02-19T20:10:26.047Z,15.98
2023-02-19T20:12:53.961Z,14.75
2023-02-19T20:15:22.922Z,15.77
2023-02-19T20:17:51.103Z,12.52
2023-02-19T20:20:19.447Z,15.45
2023-02-19T20:22:47.295Z,17.65
2023-02-19T20:25:16.422Z,15.40
2023-02-19T20:27:44.385Z,13.15
2023-02-19T20:30:14.649Z,13.05
2023-02-19T20:32:42.794Z,13.68
2023-02-19T20:35:10.900Z,14.02
2023-02-19T20:37:40.109Z,15.65
2023-02-19T20:40:12.666Z,16.37
2023-02-19T20:42:40.488Z,16.67
2023-02-19T20:45:09.258Z,12.98
2023-02-19T20:47:40.319Z,15.75
2023-02-19T20:50:08.987Z,12.85
2023-02-19T20:52:36.899Z,14.40
2023-02-19T20:55:05.066Z,19.02
2023-02-19T20:57:33.350Z,16.35
2023-02-19T21:00:01.179Z,17.20
2023-02-19T21:02:31.682Z,18.35
2023-02-19T21:05:01.108Z,16.73
2023-02-19T21:07:31.157Z,14.30
2023-02-19T21:09:59.441Z,15.60
2023-02-19T21:12:27.402Z,19.10
2023-02-19T21:14:55.309Z,15.20
2023-02-19T21:17:23.502Z,14.82
2023-02-19T21:19:51.729Z,14.70
2023-02-19T21:22:19.621Z,21.33
2023-02-19T21:24:53.292Z,12.55
2023-02-19T21:27:21.479Z,17.55
2023-02-19T21:29:52.793Z,17.60
2023-02-19T21:32:20.723Z,16.45
2023-02-19T21:34:49.264Z,14.27
2023-02-19T21:37:17.579Z,15.25
2023-02-19T21:39:45.402Z,14.10
2023-02-19T21:42:13.286Z,14.68
2023-02-19T21:44:43.080Z,18.00
2023-02-19T21:47:12.880Z,13.82
2023-02-19T21:49:42.322Z,18.62
2023-02-19T21:52:10.352Z,18.52
2023-02-19T21:54:40.531Z,17.77
2023-02-19T21:57:09.696Z,19.30
2023-02-19T21:59:37.493Z,21.62
2023-02-19T22:02:05.256Z,24.05
2023-02-19T22:04:33.284Z,20.70
2023-02-19T22:07:01.118Z,23.00
2023-02-19T22:09:29.048Z,28.15
2023-02-19T22:11:57.276Z,27.92
2023-02-19T22:14:28.372Z,28.90
2023-02-19T22:16:56.218Z,24.60
2023-02-19T22:19:24.402Z,24.75
2023-02-19T22:21:52.079Z,17.60
2023-02-19T22:24:22.040Z,18.05
2023-02-19T22:26:50.952Z,18.60
2023-02-19T22:29:18.790Z,20.58
2023-02-19T22:31:46.705Z,21.60
2023-02-19T22:34:15.943Z,17.23
2023-02-19T22:36:44.347Z,19.37
2023-02-19T22:39:27.073Z,17.65
2023-02-19T22:41:55.246Z,17.98
2023-02-19T22:44:23.139Z,16.90
2023-02-19T22:46:55.713Z,16.60
2023-02-19T22:51:57.693Z,13.90
2023-02-19T22:54:27.269Z,18.70
2023-02-19T22:56:55.799Z,17.48
2023-02-19T22:59:23.649Z,14.10
2023-02-19T23:01:52.665Z,16.00
2023-02-19T23:04:22.103Z,13.32
2023-02-19T23:06:50.650Z,12.98
2023-02-19T23:09:26.711Z,14.57
2023-02-19T23:12:10.877Z,16.20
2023-02-19T23:14:42.469Z,14.30
2023-02-19T23:17:13.531Z,16.10
2023-02-19T23:19:41.673Z,14.90
2023-02-19T23:22:09.537Z,14.65
2023-02-19T23:24:37.289Z,13.10
2023-02-19T23:27:05.661Z,14.45
2023-02-19T23:29:33.514Z,19.60
2023-02-19T23:32:01.348Z,13.85
2023-02-19T23:34:29.530Z,14.32
2023-02-19T23:36:59.731Z,13.77
2023-02-19T23:39:27.474Z,15.02
2023-02-19T23:41:57.639Z,17.02
2023-02-19T23:44:26.676Z,14.75
2023-02-19T23:46:54.433Z,15.15
2023-02-19T23:49:23.146Z,12.50
2023-02-19T23:51:51.630Z,14.32
2023-02-19T23:54:19.444Z,9.90
2023-02-19T23:56:47.661Z,16.62
2023-02-19T23:59:18.541Z,10.65
